Time;durP1;ratioP1;P1;durP2;ratioP2;P2;SDS_P1;SDS_P2;PMS_P1;PMS_P2;Temp;Humidity;BMP_temperature;BMP_pressure;BME280_temperature;BME280_humidity;BME280_pressure;Samples;Min_cycle;Max_cycle;Signal;HPM_P1;HPM_P2
2020/12/20 00:01:43;;;;;;;43.10;21.20;;;;;;;3.28;100.00;100617.45;1756134;81;21167;-69
2020/12/20 00:04:11;;;;;;;44.58;21.95;;;;;;;3.27;100.00;100621.85;1762672;81;21702;-70
2020/12/20 00:06:40;;;;;;;43.80;20.68;;;;;;;3.29;100.00;100621.75;1756344;81;21600;-70
2020/12/20 00:09:13;;;;;;;39.10;19.15;;;;;;;3.27;99.96;100618.38;1757463;81;21171;-70
2020/12/20 00:11:42;;;;;;;35.68;18.95;;;;;;;3.30;100.00;100623.45;1748989;81;21298;-70
2020/12/20 00:14:29;;;;;;;39.55;19.37;;;;;;;3.30;99.68;100625.59;1751004;81;21167;-69
2020/12/20 00:17:03;;;;;;;37.38;18.98;;;;;;;3.28;99.47;100628.75;1729666;81;21150;-69
2020/12/20 00:19:32;;;;;;;36.70;18.73;;;;;;;3.24;99.56;100625.92;1764473;81;21186;-69
2020/12/20 00:22:04;;;;;;;34.43;17.82;;;;;;;3.22;99.83;100626.46;1733989;81;21675;-69
2020/12/20 00:24:31;;;;;;;38.65;18.30;;;;;;;3.20;99.79;100630.92;1762608;81;21174;-69
2020/12/20 00:26:59;;;;;;;33.28;17.02;;;;;;;3.19;99.76;100631.00;1750953;81;21714;-69
2020/12/20 00:29:28;;;;;;;32.98;17.92;;;;;;;3.21;99.74;100629.14;1756216;81;21178;-69
2020/12/20 00:31:56;;;;;;;37.73;17.90;;;;;;;3.20;99.84;100627.44;1729805;81;21595;-69
2020/12/20 00:34:23;;;;;;;34.45;18.02;;;;;;;3.19;99.80;100622.69;1764074;81;21651;-69
2020/12/20 00:36:52;;;;;;;32.38;17.15;;;;;;;3.19;100.00;100628.38;1760992;81;21162;-69
2020/12/20 00:39:20;;;;;;;33.80;17.75;;;;;;;3.19;100.00;100627.91;1753725;81;21175;-69
2020/12/20 00:41:49;;;;;;;33.98;17.07;;;;;;;3.18;100.00;100628.85;1750488;81;21315;-69
2020/12/20 00:44:18;;;;;;;32.45;17.40;;;;;;;3.19;99.91;100625.77;1750150;81;21305;-69
2020/12/20 00:46:47;;;;;;;29.57;16.40;;;;;;;3.23;99.93;100624.21;1762604;81;21300;-69
2020/12/20 00:49:16;;;;;;;35.03;17.98;;;;;;;3.24;100.00;100626.39;1755891;81;21266;-69
2020/12/20 00:51:44;;;;;;;31.50;17.02;;;;;;;3.25;99.73;100625.45;1756454;81;21196;-69
2020/12/20 00:54:14;;;;;;;31.85;16.75;;;;;;;3.24;99.38;100623.78;1712639;83;21371;-69
2020/12/20 00:56:42;;;;;;;34.83;17.65;;;;;;;3.22;99.49;100622.54;1722411;83;21150;-69
2020/12/20 00:59:12;;;;;;;35.60;18.02;;;;;;;3.19;99.74;100617.45;1721516;83;21623;-69
2020/12/20 01:01:40;;;;;;;35.20;17.85;;;;;;;3.19;99.63;100618.77;1751347;81;21167;-69
2020/12/20 01:04:08;;;;;;;30.85;17.05;;;;;;;3.20;99.46;100620.47;1749277;81;21163;-69
2020/12/20 01:06:36;;;;;;;31.02;17.70;;;;;;;3.19;99.29;100619.23;1728474;81;21596;-70
2020/12/20 01:09:08;;;;;;;34.20;18.50;;;;;;;3.17;99.54;100618.00;1730789;81;21168;-69
2020/12/20 01:11:37;;;;;;;32.25;17.37;;;;;;;3.16;99.91;100618.94;1730741;81;21313;-70
2020/12/20 01:14:04;;;;;;;31.20;17.42;;;;;;;3.17;99.96;100623.23;1730041;81;21563;-70
2020/12/20 01:16:33;;;;;;;32.50;17.00;;;;;;;3.18;100.00;100625.38;1732639;81;21183;-69
2020/12/20 01:19:01;;;;;;;31.17;16.42;;;;;;;3.20;99.81;100627.44;1752429;81;21171;-70
2020/12/20 01:21:29;;;;;;;30.88;16.65;;;;;;;3.23;99.68;100628.13;1760627;81;21177;-69
2020/12/20 01:23:58;;;;;;;28.85;16.60;;;;;;;3.24;99.38;100624.61;1760854;81;21185;-69
2020/12/20 01:26:28;;;;;;;29.12;16.02;;;;;;;3.25;99.64;100622.36;1756774;81;21136;-70
2020/12/20 01:28:57;;;;;;;28.77;16.23;;;;;;;3.28;99.66;100627.91;1755026;81;21745;-70
2020/12/20 01:31:25;;;;;;;32.45;17.10;;;;;;;3.28;99.17;100620.91;1755223;81;21194;-70
2020/12/20 01:34:25;;;;;;;31.00;16.25;;;;;;;3.28;98.83;100627.45;1814320;78;23588;-70
2020/12/20 01:36:56;;;;;;;31.15;16.05;;;;;;;3.20;98.81;100630.92;1783218;80;21128;-70
2020/12/20 01:39:24;;;;;;;31.75;17.45;;;;;;;3.21;99.35;100630.45;1729590;83;21182;-70
2020/12/20 01:41:53;;;;;;;30.65;16.85;;;;;;;3.23;99.52;100635.98;1727581;81;21633;-70
2020/12/20 01:44:23;;;;;;;28.92;16.07;;;;;;;3.23;99.26;100632.05;1708588;83;21162;-70
2020/12/20 01:46:51;;;;;;;29.63;15.80;;;;;;;3.24;99.18;100629.00;1724532;83;21178;-70
2020/12/20 01:49:19;;;;;;;29.72;15.35;;;;;;;3.24;99.31;100637.69;1720969;83;21176;-70
2020/12/20 01:51:48;;;;;;;32.17;16.85;;;;;;;3.25;99.24;100631.52;1714805;82;21626;-70
2020/12/20 01:54:16;;;;;;;29.12;16.82;;;;;;;3.26;99.08;100632.38;1722415;83;21176;-70
2020/12/20 01:56:46;;;;;;;29.65;16.17;;;;;;;3.28;99.16;100630.06;1719668;83;21212;-69
2020/12/20 01:59:15;;;;;;;32.42;17.00;;;;;;;3.31;98.91;100635.58;1715844;83;21650;-69
2020/12/20 02:01:44;;;;;;;31.73;17.17;;;;;;;3.29;99.11;100628.28;1718838;83;21180;-69
2020/12/20 02:04:14;;;;;;;28.23;15.45;;;;;;;3.29;98.91;100632.20;1688398;83;21167;-70
2020/12/20 02:06:45;;;;;;;30.85;16.27;;;;;;;3.24;98.69;100629.84;1681919;83;21123;-69
2020/12/20 02:09:12;;;;;;;30.80;15.83;;;;;;;3.19;98.79;100634.45;1730032;81;21170;-69
2020/12/20 02:11:42;;;;;;;30.23;16.23;;;;;;;3.17;99.13;100634.99;1763561;81;21147;-69
2020/12/20 02:14:11;;;;;;;32.85;16.70;;;;;;;3.19;99.53;100638.38;1716383;83;21151;-70
2020/12/20 02:16:40;;;;;;;31.25;17.48;;;;;;;3.20;99.20;100637.45;1685325;84;21303;-70
2020/12/20 02:19:08;;;;;;;33.23;17.05;;;;;;;3.20;99.46;100634.84;1693123;84;21203;-69
2020/12/20 02:21:36;;;;;;;33.15;18.67;;;;;;;3.21;99.29;100638.30;1695519;84;21255;-70
2020/12/20 02:24:06;;;;;;;33.58;18.40;;;;;;;3.17;99.27;100633.68;1684574;84;21802;-69
2020/12/20 02:26:40;;;;;;;31.50;16.90;;;;;;;3.15;99.41;100637.31;1685756;84;21205;-70
2020/12/20 02:29:08;;;;;;;35.10;17.40;;;;;;;3.15;99.85;100638.14;1691387;84;21212;-69
2020/12/20 02:31:36;;;;;;;35.45;18.20;;;;;;;3.20;99.82;100645.30;1728537;81;21182;-69
2020/12/20 02:34:05;;;;;;;37.95;18.92;;;;;;;3.22;100.00;100634.30;1750212;81;21297;-70
2020/12/20 02:36:33;;;;;;;33.42;18.55;;;;;;;3.26;100.00;100633.22;1758900;81;21313;-69
2020/12/20 02:39:07;;;;;;;34.08;18.35;;;;;;;3.32;100.00;100633.84;1713402;81;21286;-71
2020/12/20 02:42:03;;;;;;;39.23;18.50;;;;;;;3.38;99.46;100629.59;1799345;78;23553;-69
2020/12/20 02:44:33;;;;;;;33.00;17.32;;;;;;;3.33;99.07;100636.81;1768576;81;21161;-69
2020/12/20 02:47:05;;;;;;;34.65;17.62;;;;;;;3.31;98.86;100634.28;1767935;81;21164;-70
2020/12/20 02:49:32;;;;;;;32.42;16.87;;;;;;;3.31;98.73;100636.89;1701485;83;21177;-70
2020/12/20 02:52:03;;;;;;;31.62;17.25;;;;;;;3.32;98.86;100642.98;1691438;84;21160;-70
2020/12/20 02:54:31;;;;;;;30.35;16.48;;;;;;;3.28;99.17;100640.98;1724408;83;21313;-70
2020/12/20 02:57:00;;;;;;;31.35;16.45;;;;;;;3.29;99.10;100646.59;1724791;82;21729;-70
2020/12/20 02:59:32;;;;;;;31.65;16.37;;;;;;;3.28;99.25;100647.05;1728539;83;21150;-69
2020/12/20 03:02:00;;;;;;;33.55;16.67;;;;;;;3.25;98.97;100647.20;1718257;83;21233;-70
2020/12/20 03:04:29;;;;;;;34.05;16.15;;;;;;;3.24;98.63;100640.77;1690764;83;21334;-70
2020/12/20 03:06:57;;;;;;;30.70;17.00;;;;;;;3.18;98.83;100647.16;1734183;83;21562;-69
2020/12/20 03:09:26;;;;;;;32.70;17.77;;;;;;;3.19;99.56;100644.06;1718058;83;21201;-69
2020/12/20 03:11:55;;;;;;;34.27;17.73;;;;;;;3.19;99.91;100634.45;1717289;83;21184;-69
2020/12/20 03:14:23;;;;;;;32.73;16.37;;;;;;;3.19;99.54;100637.53;1708847;83;21188;-69
2020/12/20 03:16:52;;;;;;;30.02;16.12;;;;;;;3.15;99.50;100638.14;1726592;83;21634;-69
2020/12/20 03:19:20;;;;;;;30.97;16.17;;;;;;;3.14;99.61;100643.45;1705513;83;21182;-69
2020/12/20 03:21:49;;;;;;;35.13;17.02;;;;;;;3.11;99.62;100645.77;1719127;83;21185;-70
2020/12/20 03:24:18;;;;;;;30.50;15.63;;;;;;;3.15;100.00;100643.38;1732448;83;21125;-70
2020/12/20 03:26:54;;;;;;;32.42;17.30;;;;;;;3.16;99.80;100646.38;1717396;83;21666;-70
2020/12/20 03:29:39;;;;;;;31.02;16.52;;;;;;;3.17;100.00;100646.75;1703828;83;21154;-69
2020/12/20 03:32:39;;;;;;;27.95;16.32;;;;;;;3.21;99.71;100650.89;1803768;78;23508;-70
2020/12/20 03:35:10;;;;;;;33.95;17.23;;;;;;;3.16;99.70;100655.53;1775871;80;21192;-70
2020/12/20 03:37:49;;;;;;;31.97;18.60;;;;;;;3.16;99.40;100669.91;1733432;83;21718;-70
2020/12/20 03:40:20;;;;;;;31.82;19.42;;;;;;;3.16;99.50;100673.83;1762454;81;21573;-70
2020/12/20 03:42:48;;;;;;;34.13;21.15;;;;;;;3.17;99.38;100671.59;1694231;83;21136;-70
2020/12/20 03:45:17;;;;;;;33.78;21.65;;;;;;;3.15;99.41;100673.44;1714246;83;21252;-70
2020/12/20 03:47:45;;;;;;;34.10;19.85;;;;;;;3.14;99.48;100674.81;1699131;83;21189;-70
2020/12/20 03:50:12;;;;;;;31.05;18.07;;;;;;;3.11;99.26;100678.44;1698690;83;21795;-70
2020/12/20 03:52:40;;;;;;;28.67;17.82;;;;;;;3.09;99.46;100675.89;1705798;83;21205;-71
2020/12/20 03:55:25;;;;;;;25.45;15.10;;;;;;;3.10;99.38;100674.98;1716954;83;21221;-70
2020/12/20 03:57:53;;;;;;;28.85;16.10;;;;;;;3.12;99.12;100682.72;1725530;83;21339;-70
2020/12/20 04:00:22;;;;;;;27.67;15.32;;;;;;;3.12;99.39;100685.34;1721168;83;21299;-70
2020/12/20 04:02:52;;;;;;;25.12;14.20;;;;;;;3.13;99.28;100688.34;1723428;83;21157;-70
2020/12/20 04:05:22;;;;;;;25.85;14.47;;;;;;;3.11;99.15;100686.28;1719440;83;21360;-70
2020/12/20 04:07:49;;;;;;;26.82;15.32;;;;;;;3.07;99.07;100687.36;1708770;83;21189;-70
2020/12/20 04:10:18;;;;;;;27.45;14.98;;;;;;;3.04;99.12;100698.78;1713766;83;21387;-70
2020/12/20 04:12:46;;;;;;;24.82;13.95;;;;;;;3.04;99.52;100692.72;1731430;83;21657;-70
2020/12/20 04:15:14;;;;;;;23.50;13.62;;;;;;;3.05;99.48;100699.66;1731150;83;21189;-71
2020/12/20 04:17:42;;;;;;;24.72;14.60;;;;;;;3.09;99.82;100698.58;1727239;83;21610;-70
2020/12/20 04:20:09;;;;;;;24.70;13.98;;;;;;;3.09;99.73;100705.95;1711894;83;21324;-71
2020/12/20 04:23:15;;;;;;;23.95;13.15;;;;;;;3.17;99.88;100711.27;1804191;78;23061;-70
2020/12/20 04:25:48;;;;;;;23.83;13.83;;;;;;;3.14;99.69;100712.24;1727135;83;21289;-70
2020/12/20 04:28:18;;;;;;;21.70;12.58;;;;;;;3.14;99.56;100714.02;1728288;83;21223;-70
2020/12/20 04:30:47;;;;;;;22.20;11.78;;;;;;;3.17;99.27;100720.41;1746650;81;21168;-70
2020/12/20 04:33:16;;;;;;;21.93;12.37;;;;;;;3.18;98.85;100720.34;1727560;83;21156;-70
2020/12/20 04:35:46;;;;;;;21.52;11.63;;;;;;;3.18;99.00;100717.73;1699367;82;21605;-70
2020/12/20 04:38:13;;;;;;;22.10;12.50;;;;;;;3.20;98.92;100723.73;1704192;82;21168;-70
2020/12/20 04:40:44;;;;;;;20.90;11.60;;;;;;;3.23;98.83;100733.17;1714555;82;21192;-70
2020/12/20 04:43:12;;;;;;;20.60;12.05;;;;;;;3.22;98.43;100727.58;1688436;83;21193;-70
2020/12/20 04:45:43;;;;;;;22.40;12.50;;;;;;;3.20;98.20;100732.01;1724529;83;21598;-71
2020/12/20 04:48:13;;;;;;;23.90;12.20;;;;;;;3.17;98.11;100738.24;1704119;83;21185;-70
2020/12/20 04:51:10;;;;;;;22.77;13.75;;;;;;;3.22;98.24;100742.80;1885056;74;28331;-70
2020/12/20 04:53:39;;;;;;;21.68;12.43;;;;;;;3.24;98.13;100748.80;1869557;75;21281;-70
2020/12/20 04:56:10;;;;;;;23.38;13.55;;;;;;;3.25;97.56;100750.47;1882095;75;21126;-70
2020/12/20 04:58:52;;;;;;;25.57;14.85;;;;;;;3.19;97.86;100740.79;1896171;75;21136;-70
2020/12/20 05:01:22;;;;;;;25.20;14.43;;;;;;;3.12;98.28;100732.39;1790754;78;21222;-70
2020/12/20 05:03:50;;;;;;;26.07;14.23;;;;;;;3.14;99.01;100735.77;1810363;78;21310;-70
2020/12/20 05:06:18;;;;;;;24.12;14.80;;;;;;;3.16;98.87;100733.95;1819083;78;21616;-70
2020/12/20 05:08:49;;;;;;;27.40;14.47;;;;;;;3.16;98.80;100739.19;1809631;78;21152;-70
2020/12/20 05:11:38;;;;;;;25.32;13.78;;;;;;;3.18;99.37;100744.31;1809291;78;21116;-70
2020/12/20 05:14:08;;;;;;;24.57;13.85;;;;;;;3.17;99.13;100740.86;1794102;78;21324;-70
2020/12/20 05:16:39;;;;;;;24.02;13.72;;;;;;;3.15;99.09;100735.33;1824567;78;21298;-69
2020/12/20 05:19:35;;;;;;;26.10;13.03;;;;;;;3.19;99.23;100740.79;1805661;78;23082;-70
2020/12/20 05:22:20;;;;;;;25.17;14.35;;;;;;;3.14;98.93;100743.61;1746819;80;21580;-70
2020/12/20 05:24:57;;;;;;;21.68;12.40;;;;;;;3.13;99.17;100734.56;1772102;79;21301;-70
2020/12/20 05:27:28;;;;;;;25.62;13.00;;;;;;;3.13;99.49;100734.09;1794121;80;21711;-70
2020/12/20 05:30:13;;;;;;;21.73;12.65;;;;;;;3.11;99.32;100739.86;1789995;80;21711;-70
2020/12/20 05:32:44;;;;;;;21.30;11.57;;;;;;;3.11;99.80;100728.94;1768361;80;21583;-70
2020/12/20 05:35:15;;;;;;;22.98;12.68;;;;;;;3.15;99.52;100738.78;1787429;80;21184;-70
2020/12/20 05:37:45;;;;;;;21.07;12.00;;;;;;;3.14;99.24;100748.84;1726333;83;21333;-70
2020/12/20 05:40:32;;;;;;;22.02;11.57;;;;;;;3.15;98.98;100747.09;1714794;82;21287;-70
2020/12/20 05:43:06;;;;;;;23.02;12.13;;;;;;;3.13;98.97;100755.00;1712710;83;21190;-70
2020/12/20 05:45:36;;;;;;;21.55;11.75;;;;;;;3.11;99.16;100759.46;1708309;83;21163;-70
2020/12/20 05:48:16;;;;;;;21.45;12.15;;;;;;;3.11;99.03;100767.30;1728059;83;21158;-70
2020/12/20 05:50:56;;;;;;;22.70;11.78;;;;;;;3.05;98.96;100763.22;1671063;84;21180;-70
2020/12/20 05:53:30;;;;;;;20.95;11.93;;;;;;;3.00;99.27;100768.28;1722150;83;21778;-70
2020/12/20 05:55:59;;;;;;;20.00;10.80;;;;;;;3.00;99.36;100772.20;1690889;84;21160;-70
2020/12/20 05:58:29;;;;;;;18.60;11.20;;;;;;;2.97;99.31;100766.64;1681250;84;21314;-70
2020/12/20 06:00:57;;;;;;;20.25;10.40;;;;;;;2.95;99.56;100772.87;1733352;83;21215;-70
2020/12/20 06:03:25;;;;;;;19.07;10.13;;;;;;;2.92;99.50;100776.48;1700503;84;21633;-70
2020/12/20 06:05:52;;;;;;;17.45;9.95;;;;;;;2.89;99.58;100771.39;1729875;83;21341;-70
2020/12/20 06:08:22;;;;;;;17.42;10.10;;;;;;;2.86;99.90;100778.93;1701586;84;21603;-70
2020/12/20 06:10:53;;;;;;;19.23;10.90;;;;;;;2.85;99.76;100777.22;1708753;83;21234;-70
2020/12/20 06:13:24;;;;;;;19.25;10.93;;;;;;;2.83;99.84;100780.84;1708507;83;21167;-70
2020/12/20 06:15:54;;;;;;;16.70;9.85;;;;;;;2.83;99.76;100777.75;1722358;83;21192;-70
2020/12/20 06:18:28;;;;;;;18.02;10.28;;;;;;;2.82;100.00;100779.97;1704715;83;21187;-70
2020/12/20 06:20:57;;;;;;;18.87;10.40;;;;;;;2.84;100.00;100779.90;1722254;83;21180;-70
2020/12/20 06:23:32;;;;;;;19.27;10.30;;;;;;;2.86;100.00;100787.20;1694551;84;21199;-70
2020/12/20 06:26:02;;;;;;;18.23;10.85;;;;;;;2.90;100.00;100787.00;1690432;84;21188;-70
2020/12/20 06:28:32;;;;;;;21.52;11.08;;;;;;;2.95;100.00;100791.16;1693667;84;21635;-70
2020/12/20 06:31:01;;;;;;;18.90;10.70;;;;;;;2.96;100.00;100797.62;1731523;82;21207;-70
2020/12/20 06:33:51;;;;;;;21.45;11.25;;;;;;;3.00;100.00;100801.78;1694923;84;21596;-70
2020/12/20 06:36:19;;;;;;;19.65;10.98;;;;;;;3.05;99.71;100794.58;1684522;84;21187;-70
2020/12/20 06:38:54;;;;;;;19.35;10.93;;;;;;;3.07;99.56;100804.97;1669730;84;21596;-70
2020/12/20 06:41:34;;;;;;;19.02;10.68;;;;;;;3.08;99.08;100802.72;1719096;83;21174;-70
2020/12/20 06:44:13;;;;;;;17.12;10.82;;;;;;;3.05;98.65;100809.42;1717245;83;21172;-70
2020/12/20 06:46:41;;;;;;;18.10;10.80;;;;;;;3.01;98.92;100809.16;1690339;84;21219;-71
2020/12/20 06:49:37;;;;;;;20.15;11.20;;;;;;;3.00;98.87;100808.32;1680227;84;21184;-71
2020/12/20 06:52:27;;;;;;;18.82;11.20;;;;;;;3.05;99.13;100809.42;1730340;83;21175;-70
2020/12/20 06:55:07;;;;;;;20.23;11.35;;;;;;;3.08;99.09;100810.56;1707581;83;21650;-71
2020/12/20 06:57:36;;;;;;;21.45;11.85;;;;;;;3.09;99.15;100807.88;1704052;83;21227;-70
2020/12/20 07:00:05;;;;;;;18.25;11.68;;;;;;;3.11;98.91;100809.13;1714917;83;21196;-70
2020/12/20 07:02:48;;;;;;;20.52;12.15;;;;;;;3.14;98.91;100812.04;1704238;83;21591;-71
2020/12/20 07:05:41;;;;;;;;;;;;;;;3.13;98.60;100809.89;1718536;83;21191;-70
2020/12/20 07:08:27;;;;;;;21.90;12.30;;;;;;;3.17;98.43;100807.52;1703228;83;20195;-70
2020/12/20 07:11:02;;;;;;;22.98;13.00;;;;;;;3.20;98.60;100807.82;1704364;83;21604;-70
2020/12/20 07:13:47;;;;;;;19.90;11.97;;;;;;;3.21;97.95;100811.67;1677282;83;21695;-71
2020/12/20 07:16:17;;;;;;;20.25;11.93;;;;;;;3.18;97.68;100808.36;1683398;84;21731;-71
2020/12/20 07:18:51;;;;;;;24.12;12.70;;;;;;;3.12;97.42;100814.72;1675169;84;21600;-70
2020/12/20 07:21:30;;;;;;;20.68;12.40;;;;;;;3.07;97.54;100812.81;1675504;84;21195;-70
2020/12/20 07:24:07;;;;;;;24.18;13.13;;;;;;;3.04;98.10;100812.94;1682556;84;21202;-71
2020/12/20 07:26:35;;;;;;;20.20;11.88;;;;;;;3.09;98.12;100821.42;1729766;83;21600;-71
2020/12/20 07:29:04;;;;;;;20.75;12.47;;;;;;;3.16;98.16;100819.34;1680333;84;21192;-71
2020/12/20 07:31:33;;;;;;;22.85;12.63;;;;;;;3.19;97.75;100825.28;1691347;84;21589;-71
2020/12/20 07:34:01;;;;;;;24.35;14.68;;;;;;;3.19;97.92;100824.44;1725195;83;21314;-71
2020/12/20 07:36:28;;;;;;;24.12;15.15;;;;;;;3.21;97.74;100822.59;1697157;84;21223;-70
2020/12/20 07:38:56;;;;;;;23.02;14.80;;;;;;;3.19;97.28;100822.67;1697768;84;21601;-70
2020/12/20 07:41:27;;;;;;;22.32;13.80;;;;;;;3.16;97.24;100822.83;1700835;83;21164;-70
2020/12/20 07:43:54;;;;;;;22.42;13.72;;;;;;;3.15;96.96;100828.97;1699116;83;21708;-70
2020/12/20 07:46:22;;;;;;;22.65;13.78;;;;;;;3.14;96.68;100833.79;1723350;83;21734;-70
2020/12/20 07:48:51;;;;;;;23.30;14.50;;;;;;;3.14;97.02;100835.09;1688869;84;21739;-71
2020/12/20 07:54:20;;;;;;;21.75;12.90;;;;;;;3.28;96.75;100835.77;1815961;78;22972;-70
2020/12/20 07:56:49;;;;;;;20.97;12.53;;;;;;;3.24;96.32;100836.84;1789444;80;21124;-69
2020/12/20 07:59:18;;;;;;;22.10;13.85;;;;;;;3.18;96.51;100842.34;1702542;83;21170;-69
2020/12/20 08:01:48;;;;;;;22.62;13.72;;;;;;;3.12;95.66;100834.33;1758430;81;21301;-71
2020/12/20 08:04:19;;;;;;;22.58;14.30;;;;;;;3.14;95.94;100839.48;1742728;81;21230;-71
2020/12/20 08:06:49;;;;;;;25.20;14.43;;;;;;;3.12;96.05;100840.86;1729598;83;21180;-71
2020/12/20 08:09:25;;;;;;;22.40;14.40;;;;;;;3.16;96.23;100841.56;1759208;81;21169;-71
2020/12/20 08:11:53;;;;;;;23.98;14.85;;;;;;;3.18;96.03;100839.72;1728956;83;21247;-70
2020/12/20 08:14:22;;;;;;;23.62;14.13;;;;;;;3.21;95.96;100836.98;1722815;82;21128;-70
2020/12/20 08:16:51;;;;;;;22.70;14.43;;;;;;;3.25;96.00;100845.89;1757113;81;21179;-71
2020/12/20 08:19:29;;;;;;;21.82;14.45;;;;;;;3.32;95.59;100838.62;1714410;83;21235;-71
2020/12/20 08:22:14;;;;;;;23.25;15.00;;;;;;;3.38;94.84;100841.40;1762323;81;21168;-70
2020/12/20 08:24:45;;;;;;;25.90;15.72;;;;;;;3.42;94.87;100835.09;1729195;83;21208;-70
2020/12/20 08:27:18;;;;;;;25.10;14.98;;;;;;;3.45;94.67;100835.80;1737413;81;21186;-71
2020/12/20 08:29:50;;;;;;;23.47;14.38;;;;;;;3.54;94.56;100836.29;1733930;81;21139;-70
2020/12/20 08:32:20;;;;;;;25.15;14.93;;;;;;;3.59;94.00;100832.97;1751237;81;21230;-70
2020/12/20 08:34:48;;;;;;;25.95;16.10;;;;;;;3.63;93.47;100834.53;1733567;81;21516;-71
2020/12/20 08:37:19;;;;;;;23.00;13.65;;;;;;;3.67;92.70;100839.52;1747111;81;21168;-71
2020/12/20 08:39:46;;;;;;;21.40;13.55;;;;;;;3.71;91.55;100844.62;1743014;81;21150;-71
2020/12/20 08:42:16;;;;;;;24.75;14.45;;;;;;;3.72;90.70;100841.06;1729944;81;21187;-70
2020/12/20 08:44:46;;;;;;;27.27;17.20;;;;;;;3.69;90.48;100849.45;1685134;84;21200;-68
2020/12/20 08:47:19;;;;;;;27.13;16.67;;;;;;;3.68;90.91;100849.08;1746126;81;21581;-70
2020/12/20 08:49:59;;;;;;;27.65;16.35;;;;;;;3.68;91.04;100847.77;1745025;81;21171;-71
2020/12/20 08:52:30;;;;;;;25.77;15.58;;;;;;;3.72;91.00;100841.06;1748033;81;21184;-70
2020/12/20 08:55:00;;;;;;;28.35;16.97;;;;;;;3.72;90.81;100843.20;1721120;82;21193;-70
2020/12/20 08:57:31;;;;;;;30.48;19.48;;;;;;;3.67;90.80;100844.75;1739439;81;21171;-71
2020/12/20 09:00:13;;;;;;;33.40;18.92;;;;;;;3.68;91.16;100850.83;1698396;84;21758;-71
2020/12/20 09:02:41;;;;;;;33.45;20.40;;;;;;;3.67;91.10;100851.30;1745771;81;21371;-70
2020/12/20 09:05:14;;;;;;;35.68;21.12;;;;;;;3.69;91.24;100845.99;1690075;84;21203;-70
2020/12/20 09:07:44;;;;;;;36.63;22.13;;;;;;;3.68;91.43;100851.70;1737727;81;21495;-70
2020/12/20 09:10:16;;;;;;;33.48;20.70;;;;;;;3.73;90.88;100853.23;1698845;84;21334;-70
2020/12/20 09:12:53;;;;;;;28.57;18.50;;;;;;;3.69;90.04;100845.99;1686442;84;21211;-70
2020/12/20 09:15:30;;;;;;;33.78;20.55;;;;;;;3.62;89.93;100844.59;1741216;81;21622;-70
2020/12/20 09:18:02;;;;;;;36.05;20.55;;;;;;;3.49;90.57;100848.27;1743385;81;21312;-70
2020/12/20 09:20:29;;;;;;;38.02;20.95;;;;;;;3.50;91.00;100849.97;1739205;81;21139;-70
2020/12/20 09:22:59;;;;;;;33.42;21.05;;;;;;;3.50;91.43;100848.67;1746160;81;21192;-71
2020/12/20 09:25:38;;;;;;;30.32;19.57;;;;;;;3.50;91.54;100848.67;1703025;82;21753;-71
2020/12/20 09:28:08;;;;;;;29.67;19.30;;;;;;;3.52;91.52;100856.41;1693902;84;21184;-70
2020/12/20 09:30:44;;;;;;;29.72;19.27;;;;;;;3.53;91.24;100855.03;1746295;81;21148;-70
2020/12/20 09:33:33;;;;;;;30.60;19.92;;;;;;;3.51;90.92;100849.03;1746349;81;21179;-70
2020/12/20 09:36:15;;;;;;;31.45;19.80;;;;;;;3.49;90.96;100849.11;1739228;81;21158;-71
2020/12/20 09:38:52;;;;;;;31.37;19.25;;;;;;;3.51;90.37;100851.65;1736697;81;21758;-70
2020/12/20 09:41:25;;;;;;;30.32;20.05;;;;;;;3.56;90.39;100840.98;1697198;84;21230;-71
2020/12/20 09:43:53;;;;;;;33.58;20.77;;;;;;;3.56;90.19;100839.20;1692291;84;21208;-70
2020/12/20 09:46:28;;;;;;;28.90;18.98;;;;;;;3.56;90.58;100847.05;1737814;82;21231;-70
2020/12/20 09:48:57;;;;;;;33.85;19.92;;;;;;;3.53;89.99;100842.43;1716190;82;21176;-71
2020/12/20 09:51:25;;;;;;;32.95;19.80;;;;;;;3.43;90.14;100850.72;1746218;81;21306;-70
2020/12/20 09:53:54;;;;;;;32.55;20.68;;;;;;;3.39;90.92;100850.48;1741327;81;21180;-70
2020/12/20 09:56:21;;;;;;;33.35;20.32;;;;;;;3.40;90.98;100842.17;1741963;82;21734;-70
2020/12/20 09:58:49;;;;;;;29.85;19.92;;;;;;;3.42;91.05;100849.05;1742361;81;21712;-70
2020/12/20 10:01:23;;;;;;;29.10;19.50;;;;;;;3.43;90.27;100849.88;1744986;81;21341;-70
2020/12/20 10:03:50;;;;;;;30.40;20.45;;;;;;;3.36;90.34;100848.47;1723794;82;21612;-70
2020/12/20 10:06:18;;;;;;;32.10;21.27;;;;;;;3.26;90.42;100848.91;1743115;81;21135;-70
2020/12/20 10:08:47;;;;;;;33.30;21.05;;;;;;;3.20;90.92;100845.29;1742604;81;21164;-70
2020/12/20 10:11:19;;;;;;;31.65;20.62;;;;;;;3.20;91.08;100846.59;1717761;82;21302;-70
2020/12/20 10:13:47;;;;;;;33.75;21.48;;;;;;;3.23;90.99;100841.67;1747077;81;21204;-70
2020/12/20 10:16:19;;;;;;;29.12;19.27;;;;;;;3.24;90.71;100844.69;1745915;81;21633;-71
2020/12/20 10:18:46;;;;;;;34.67;22.07;;;;;;;3.29;90.59;100840.06;1747770;81;21736;-71
2020/12/20 10:21:14;;;;;;;29.82;19.82;;;;;;;3.32;90.00;100843.84;1741463;82;21191;-71
2020/12/20 10:23:43;;;;;;;31.12;20.57;;;;;;;3.37;90.36;100847.56;1747256;82;21144;-69
2020/12/20 10:26:11;;;;;;;29.07;19.15;;;;;;;3.40;90.19;100846.09;1738563;81;21233;-69
2020/12/20 10:28:39;;;;;;;29.12;17.90;;;;;;;3.46;89.99;100836.20;1717270;82;21191;-70
2020/12/20 10:31:06;;;;;;;29.00;18.35;;;;;;;3.54;89.37;100838.91;1739715;81;21165;-69
2020/12/20 10:33:33;;;;;;;26.07;17.65;;;;;;;3.56;88.57;100834.44;1722017;82;21339;-70
2020/12/20 10:36:01;;;;;;;26.57;17.73;;;;;;;3.56;88.04;100839.67;1747566;82;21165;-71
2020/12/20 10:38:28;;;;;;;29.75;19.87;;;;;;;3.53;87.94;100834.11;1710302;82;21155;-70
2020/12/20 10:40:56;;;;;;;30.40;19.45;;;;;;;3.51;88.25;100843.80;1736252;81;21132;-70
2020/12/20 10:43:24;;;;;;;30.00;19.95;;;;;;;3.49;87.84;100837.33;1740469;81;21168;-71
2020/12/20 10:45:51;;;;;;;30.25;20.20;;;;;;;3.47;88.18;100842.27;1743443;81;21163;-71
2020/12/20 10:48:19;;;;;;;31.85;21.20;;;;;;;3.45;88.92;100831.88;1716028;81;21394;-70
2020/12/20 10:50:47;;;;;;;35.28;22.22;;;;;;;3.46;88.84;100836.63;1710159;82;21151;-70
2020/12/20 10:53:14;;;;;;;38.08;24.10;;;;;;;3.40;88.66;100838.25;1736188;81;21167;-70
2020/12/20 10:55:42;;;;;;;37.75;24.52;;;;;;;3.36;89.28;100840.63;1713258;81;21723;-69
2020/12/20 10:58:09;;;;;;;36.58;24.20;;;;;;;3.35;89.57;100835.00;1741347;81;21303;-70
2020/12/20 11:00:38;;;;;;;32.55;21.40;;;;;;;3.35;89.34;100841.09;1718418;82;21302;-70
2020/12/20 11:03:06;;;;;;;32.58;22.58;;;;;;;3.36;89.16;100842.78;1740600;81;21584;-70
2020/12/20 11:05:35;;;;;;;33.18;22.32;;;;;;;3.36;89.29;100841.94;1736197;82;21900;-70
2020/12/20 11:08:02;;;;;;;30.08;20.25;;;;;;;3.37;89.45;100844.48;1743882;82;21139;-70
2020/12/20 11:10:32;;;;;;;32.70;22.10;;;;;;;3.40;89.14;100849.55;1736048;81;21107;-70
2020/12/20 11:13:00;;;;;;;31.57;22.02;;;;;;;3.39;88.65;100847.87;1741081;81;21173;-70
2020/12/20 11:15:28;;;;;;;31.00;21.97;;;;;;;3.39;88.45;100844.42;1744826;81;21174;-70
2020/12/20 11:17:57;;;;;;;33.35;22.40;;;;;;;3.40;88.41;100840.39;1716627;81;21318;-70
2020/12/20 11:20:25;;;;;;;33.28;20.95;;;;;;;3.44;88.03;100845.02;1746834;82;21172;-70
2020/12/20 11:22:54;;;;;;;32.63;21.30;;;;;;;3.47;87.71;100837.88;1745954;82;21275;-69
2020/12/20 11:25:22;;;;;;;32.28;22.93;;;;;;;3.46;87.76;100843.17;1747381;81;21141;-70
2020/12/20 11:27:50;;;;;;;30.82;22.50;;;;;;;3.47;87.75;100835.26;1737944;81;21597;-70
2020/12/20 11:30:17;;;;;;;30.40;20.55;;;;;;;3.44;87.81;100843.71;1739670;81;21676;-71
2020/12/20 11:32:46;;;;;;;36.00;24.05;;;;;;;3.41;87.89;100842.57;1721312;82;21157;-70
2020/12/20 11:35:16;;;;;;;34.05;22.58;;;;;;;3.34;87.90;100851.63;1737091;82;21590;-70
2020/12/20 11:37:45;;;;;;;28.38;19.02;;;;;;;3.28;88.50;100851.45;1737188;82;21663;-70
2020/12/20 11:40:13;;;;;;;32.40;19.23;;;;;;;3.25;88.44;100848.51;1743863;82;21640;-70